CheckWX is a tool to help pilots better visualize weather data.  It is not intended as a substitute for an official pre-flight weather briefing.

00:55:44 UTC

CYQU METAR
Grande Prairie Airport
Grande Prairie, Canada
Current

56 mins ago

CYQU 240000Z 30008KT 25SM FEW140 SCT240 04/M00 A3013 RMK AC1CI3 SLP236
Observed
Mar-24 @ 00:00 UTC
Wind
  • 300° at 8 KTS
Visibility
25 SM
Flight Rules
VFR
Cloud Levels
  • Few at 14,000' AGL
  • Scattered at 24,000' AGL
Temperature
C / 39°F
Dewpoint
C / 32°F
Humidity
75%
Altimeter
30.13" Hg
Pressure
1023.6 hPa
Previous

2 hours ago

CYQU 232300Z 32008KT 25SM SCT140 BKN240 05/M01 A3011 RMK AC3CI4 SLP229
Observed
Mar-23 @ 23:00 UTC
Wind
  • 320° at 8 KTS
Visibility
25 SM
Flight Rules
VFR
Cloud Levels
  • Scattered at 14,000' AGL
  • Broken at 24,000' AGL
Temperature
C / 41°F
Dewpoint
-1°C / 30°F
Humidity
66%
Altimeter
30.11" Hg
Pressure
1022.9 hPa
Previous

3 hours ago

CYQU 232200Z 33005KT 25SM SCT130 BKN240 05/M01 A3010 RMK AC3CI3 SLP225
Observed
Mar-23 @ 22:00 UTC
Wind
  • 330° at 5 KTS
Visibility
25 SM
Flight Rules
VFR
Cloud Levels
  • Scattered at 13,000' AGL
  • Broken at 24,000' AGL
Temperature
C / 41°F
Dewpoint
-1°C / 30°F
Humidity
66%
Altimeter
30.1" Hg
Pressure
1022.5 hPa